Douglas Observed Data For Previous 48 Hours

Caption
Day and Hour Reservoir Elevation (behind dam)* Tailwater Elevation (below dam)* Average Hourly Discharge*
1/18/2018 2 AM EST 953.39 873.32 8,978
1/18/2018 3 AM EST 953.37 873.46 9,029
1/18/2018 4 AM EST 953.34 874.65 13,264
1/18/2018 5 AM EST 953.28 874.85 13,421
1/18/2018 6 AM EST 953.23 874.99 14,527
1/18/2018 7 AM EST 953.17 875.00 14,570
1/18/2018 8 AM EST 953.13 874.99 14,564
1/18/2018 9 AM EST 953.06 875.05 14,561
1/18/2018 10 AM EST 953.01 875.08 14,560
1/18/2018 11 AM EST 952.97 875.01 14,343
1/18/2018 12 PM EST 952.94 874.75 13,441
1/18/2018 1 PM EST 952.91 873.38 9,026
1/18/2018 2 PM EST 952.89 873.29 8,973
1/18/2018 3 PM EST 952.88 873.27 8,985
1/18/2018 4 PM EST 952.87 873.26 8,974
1/18/2018 5 PM EST 952.82 873.46 9,056
1/18/2018 6 PM EST 952.79 874.76 13,267
1/18/2018 7 PM EST 952.75 875.00 14,463
1/18/2018 8 PM EST 952.69 874.97 14,476
1/18/2018 9 PM EST 952.63 875.05 14,463
1/18/2018 10 PM EST 952.59 875.00 14,441
1/18/2018 11 PM EST 952.53 875.00 14,443
1/19/2018 12 AM EST 952.48 874.82 13,648
1/19/2018 1 AM EST 952.45 873.39 8,940
1/19/2018 2 AM EST 952.45 871.65 4,538
1/19/2018 3 AM EST 952.48 871.47 4,416
1/19/2018 4 AM EST 952.50 871.43 4,396
1/19/2018 5 AM EST 952.46 872.59 5,012
1/19/2018 6 AM EST 952.43 873.32 9,012
1/19/2018 7 AM EST 952.41 874.58 13,292
1/19/2018 8 AM EST 952.34 874.62 13,305
1/19/2018 9 AM EST 952.26 874.62 13,296
1/19/2018 10 AM EST 952.21 874.44 13,008
1/19/2018 11 AM EST 952.21 873.53 11,175
1/19/2018 12 PM EST 952.16 873.13 8,694
1/19/2018 1 PM EST 952.16 871.68 4,611
1/19/2018 2 PM EST 952.17 871.45 4,393
1/19/2018 3 PM EST 952.20 871.38 4,381
1/19/2018 4 PM EST 952.19 871.42 4,382
1/19/2018 5 PM EST 952.18 871.38 4,388
1/19/2018 6 PM EST 952.18 872.99 7,768
1/19/2018 7 PM EST 952.17 873.12 8,776
1/19/2018 8 PM EST 952.16 873.18 8,794
1/19/2018 9 PM EST 952.13 873.20 8,791
1/19/2018 10 PM EST 952.12 873.12 8,728
1/19/2018 11 PM EST 952.10 873.10 8,720
1/20/2018 12 AM EST 952.07 873.12 8,689
1/20/2018 1 AM EST 952.06 871.57 4,440
1/20/2018 2 AM EST 952.11 869.48 86
1/20/2018 3 AM EST 952.14 868.79 0
1/20/2018 4 AM EST 952.18 868.53 15
1/20/2018 5 AM EST 952.19 870.95 4,235
1/20/2018 6 AM EST 952.20 871.25 4,371
1/20/2018 7 AM EST 952.18 871.58 4,405
1/20/2018 8 AM EST 952.17 873.01 8,649
1/20/2018 9 AM EST 952.16 873.10 8,762
1/20/2018 10 AM EST 952.13 873.12 8,745
1/20/2018 11 AM EST 952.12 873.11 8,741
1/20/2018 12 PM EST 952.09 873.17 8,738
1/20/2018 1 PM EST 952.07 873.16 8,736
1/20/2018 2 PM EST 952.07 871.57 4,449
1/20/2018 3 PM EST 952.10 869.55 268
1/20/2018 4 PM EST 952.17 868.86 0
1/20/2018 5 PM EST 952.19 868.56 18
1/20/2018 6 PM EST 952.22 869.44 2,494
1/20/2018 7 PM EST 952.23 868.71 0
1/20/2018 8 PM EST 952.26 868.37 0
1/20/2018 9 PM EST 952.28 868.26 18

Elevations are in feet above sea level. Discharges are in cubic feet per second and are reported at the end of the hour.